sensor_id;sensor_type;location;lat;lon;timestamp;pressure;altitude;pressure_sealevel;temperature;humidity
5988;BME280;3021;51.000;6.980;2023-06-10T00:00:39;68493.69;;;19.61;100.00
5988;BME280;3021;51.000;6.980;2023-06-10T00:03:06;68486.72;;;19.55;100.00
5988;BME280;3021;51.000;6.980;2023-06-10T00:05:32;68483.09;;;19.49;100.00
5988;BME280;3021;51.000;6.980;2023-06-10T00:08:00;68477.84;;;19.45;100.00
5988;BME280;3021;51.000;6.980;2023-06-10T00:10:27;68466.34;;;19.37;100.00
5988;BME280;3021;51.000;6.980;2023-06-10T00:12:52;68460.41;;;19.29;100.00
5988;BME280;3021;51.000;6.980;2023-06-10T00:15:17;68448.88;;;19.22;100.00
5988;BME280;3021;51.000;6.980;2023-06-10T00:17:43;68439.59;;;19.13;100.00
5988;BME280;3021;51.000;6.980;2023-06-10T00:20:10;68434.34;;;19.09;100.00
5988;BME280;3021;51.000;6.980;2023-06-10T00:22:38;68431.31;;;19.04;100.00
5988;BME280;3021;51.000;6.980;2023-06-10T00:25:05;68421.53;;;18.97;100.00
5988;BME280;3021;51.000;6.980;2023-06-10T00:27:31;68417.34;;;18.91;100.00
5988;BME280;3021;51.000;6.980;2023-06-10T00:30:02;68405.34;;;18.86;100.00
5988;BME280;3021;51.000;6.980;2023-06-10T00:32:29;68410.34;;;18.85;100.00
5988;BME280;3021;51.000;6.980;2023-06-10T00:34:54;68411.06;;;18.88;100.00
5988;BME280;3021;51.000;6.980;2023-06-10T00:37:20;68412.09;;;18.87;100.00
5988;BME280;3021;51.000;6.980;2023-06-10T00:39:45;68411.47;;;18.86;100.00
5988;BME280;3021;51.000;6.980;2023-06-10T00:42:11;68401.88;;;18.82;100.00
5988;BME280;3021;51.000;6.980;2023-06-10T00:44:36;68405.69;;;18.81;100.00
5988;BME280;3021;51.000;6.980;2023-06-10T00:47:02;68402.91;;;18.81;100.00
5988;BME280;3021;51.000;6.980;2023-06-10T00:49:28;68403.94;;;18.79;100.00
5988;BME280;3021;51.000;6.980;2023-06-10T00:51:54;68395.78;;;18.72;100.00
5988;BME280;3021;51.000;6.980;2023-06-10T00:54:19;68387.75;;;18.68;100.00
5988;BME280;3021;51.000;6.980;2023-06-10T00:56:46;68387.66;;;18.65;100.00
5988;BME280;3021;51.000;6.980;2023-06-10T00:59:12;68387.66;;;18.65;100.00
5988;BME280;3021;51.000;6.980;2023-06-10T01:01:39;68375.09;;;18.59;100.00
5988;BME280;3021;51.000;6.980;2023-06-10T01:04:05;68378.91;;;18.57;100.00
5988;BME280;3021;51.000;6.980;2023-06-10T01:07:07;68373.13;;;18.52;100.00
5988;BME280;3021;51.000;6.980;2023-06-10T01:12:31;68366.13;;;18.46;100.00
5988;BME280;3021;51.000;6.980;2023-06-10T01:14:59;68362.06;;;18.42;100.00
5988;BME280;3021;51.000;6.980;2023-06-10T01:17:25;68352.31;;;18.36;100.00
5988;BME280;3021;51.000;6.980;2023-06-10T01:19:55;68357.53;;;18.41;100.00
5988;BME280;3021;51.000;6.980;2023-06-10T01:22:25;68352.31;;;18.36;100.00
5988;BME280;3021;51.000;6.980;2023-06-10T01:24:54;68352.19;;;18.34;100.00
5988;BME280;3021;51.000;6.980;2023-06-10T01:27:26;68348.81;;;18.33;100.00
5988;BME280;3021;51.000;6.980;2023-06-10T01:30:16;68343.56;;;18.28;100.00
5988;BME280;3021;51.000;6.980;2023-06-10T01:32:45;68343.56;;;18.28;100.00
5988;BME280;3021;51.000;6.980;2023-06-10T01:35:11;68348.09;;;18.30;100.00
5988;BME280;3021;51.000;6.980;2023-06-10T01:37:39;68347.53;;;18.29;100.00
5988;BME280;3021;51.000;6.980;2023-06-10T01:40:06;68340.66;;;18.26;100.00
5988;BME280;3021;51.000;6.980;2023-06-10T01:42:32;68346.94;;;18.29;100.00
5988;BME280;3021;51.000;6.980;2023-06-10T01:44:58;68344.59;;;18.27;100.00
5988;BME280;3021;51.000;6.980;2023-06-10T01:47:24;68338.34;;;18.24;100.00
5988;BME280;3021;51.000;6.980;2023-06-10T01:49:49;68334.28;;;18.20;100.00
5988;BME280;3021;51.000;6.980;2023-06-10T01:52:15;68337.19;;;18.23;100.00
5988;BME280;3021;51.000;6.980;2023-06-10T01:54:41;68334.41;;;18.23;100.00
5988;BME280;3021;51.000;6.980;2023-06-10T01:57:06;68337.63;;;18.21;100.00
5988;BME280;3021;51.000;6.980;2023-06-10T01:59:31;68331.38;;;18.18;100.00
5988;BME280;3021;51.000;6.980;2023-06-10T02:01:57;68322.66;;;18.10;100.00
5988;BME280;3021;51.000;6.980;2023-06-10T02:04:22;68320.75;;;18.06;100.00
5988;BME280;3021;51.000;6.980;2023-06-10T02:06:47;68314.50;;;18.03;100.00
5988;BME280;3021;51.000;6.980;2023-06-10T02:09:13;68316.72;;;18.02;100.00
5988;BME280;3021;51.000;6.980;2023-06-10T02:11:39;68313.78;;;18.00;100.00
5988;BME280;3021;51.000;6.980;2023-06-10T02:14:06;68309.84;;;17.99;100.00
5988;BME280;3021;51.000;6.980;2023-06-10T02:16:31;68310.56;;;18.02;100.00
5988;BME280;3021;51.000;6.980;2023-06-10T02:18:56;68318.59;;;18.06;100.00
5988;BME280;3021;51.000;6.980;2023-06-10T02:21:22;68317.84;;;18.03;100.00
5988;BME280;3021;51.000;6.980;2023-06-10T02:23:48;68306.81;;;17.93;100.00
5988;BME280;3021;51.000;6.980;2023-06-10T02:26:13;68307.97;;;17.94;100.00
5988;BME280;3021;51.000;6.980;2023-06-10T02:28:42;68297.63;;;17.88;100.00
5988;BME280;3021;51.000;6.980;2023-06-10T02:31:08;68292.97;;;17.84;100.00
5988;BME280;3021;51.000;6.980;2023-06-10T02:33:33;68294.13;;;17.85;100.00
5988;BME280;3021;51.000;6.980;2023-06-10T02:35:59;68288.34;;;17.79;100.00
5988;BME280;3021;51.000;6.980;2023-06-10T02:38:24;68288.78;;;17.77;100.00
5988;BME280;3021;51.000;6.980;2023-06-10T02:40:49;68287.03;;;17.76;100.00
5988;BME280;3021;51.000;6.980;2023-06-10T02:43:15;68281.47;;;17.76;100.00
5988;BME280;3021;51.000;6.980;2023-06-10T02:45:40;68280.19;;;17.72;100.00
5988;BME280;3021;51.000;6.980;2023-06-10T02:48:05;68272.19;;;17.68;100.00
5988;BME280;3021;51.000;6.980;2023-06-10T02:50:31;68271.47;;;17.65;100.00
5988;BME280;3021;51.000;6.980;2023-06-10T02:52:56;68272.50;;;17.63;100.00
5988;BME280;3021;51.000;6.980;2023-06-10T02:55:21;68267.28;;;17.58;100.00
5988;BME280;3021;51.000;6.980;2023-06-10T02:57:47;68264.34;;;17.56;100.00
5988;BME280;3021;51.000;6.980;2023-06-10T03:00:12;68256.81;;;17.49;100.00
5988;BME280;3021;51.000;6.980;2023-06-10T03:02:39;68246.63;;;17.45;100.00
5988;BME280;3021;51.000;6.980;2023-06-10T03:05:05;68248.22;;;17.44;100.00
5988;BME280;3021;51.000;6.980;2023-06-10T03:07:35;68251.13;;;17.47;100.00
5988;BME280;3021;51.000;6.980;2023-06-10T03:10:01;68254.63;;;17.50;100.00
5988;BME280;3021;51.000;6.980;2023-06-10T03:12:26;68256.38;;;17.51;100.00
5988;BME280;3021;51.000;6.980;2023-06-10T03:14:51;68260.44;;;17.55;100.00
5988;BME280;3021;51.000;6.980;2023-06-10T03:17:16;68265.53;;;17.57;100.00
5988;BME280;3021;51.000;6.980;2023-06-10T03:19:42;68263.78;;;17.55;100.00
5988;BME280;3021;51.000;6.980;2023-06-10T03:22:12;68264.34;;;17.56;100.00
5988;BME280;3021;51.000;6.980;2023-06-10T03:24:38;68257.53;;;17.52;100.00
5988;BME280;3021;51.000;6.980;2023-06-10T03:27:07;68260.31;;;17.52;100.00
5988;BME280;3021;51.000;6.980;2023-06-10T03:29:32;68252.88;;;17.48;100.00
5988;BME280;3021;51.000;6.980;2023-06-10T03:31:58;68254.63;;;17.50;100.00
5988;BME280;3021;51.000;6.980;2023-06-10T03:34:23;68261.59;;;17.56;100.00
5988;BME280;3021;51.000;6.980;2023-06-10T03:36:48;68256.38;;;17.51;100.00
5988;BME280;3021;51.000;6.980;2023-06-10T03:39:14;68252.31;;;17.48;100.00
5988;BME280;3021;51.000;6.980;2023-06-10T03:41:40;68257.97;;;17.50;100.00
5988;BME280;3021;51.000;6.980;2023-06-10T03:44:05;68264.34;;;17.56;100.00
5988;BME280;3021;51.000;6.980;2023-06-10T03:46:31;68266.09;;;17.57;100.00
5988;BME280;3021;51.000;6.980;2023-06-10T03:48:56;68263.31;;;17.57;100.00
5988;BME280;3021;51.000;6.980;2023-06-10T03:51:21;68270.19;;;17.61;100.00
5988;BME280;3021;51.000;6.980;2023-06-10T03:53:46;68270.19;;;17.61;100.00
5988;BME280;3021;51.000;6.980;2023-06-10T03:56:12;68273.66;;;17.64;100.00
5988;BME280;3021;51.000;6.980;2023-06-10T03:58:37;68285.28;;;17.74;100.00
5988;BME280;3021;51.000;6.980;2023-06-10T04:01:02;68295.31;;;17.86;100.00
5988;BME280;3021;51.000;6.980;2023-06-10T04:03:28;68309.72;;;17.96;100.00
5988;BME280;3021;51.000;6.980;2023-06-10T04:05:53;68308.69;;;17.98;100.00
5988;BME280;3021;51.000;6.980;2023-06-10T04:08:19;68315.09;;;18.03;100.00
5988;BME280;3021;51.000;6.980;2023-06-10T04:10:45;68322.66;;;18.10;100.00
5988;BME280;3021;51.000;6.980;2023-06-10T04:13:11;68332.38;;;18.16;100.00
5988;BME280;3021;51.000;6.980;2023-06-10T04:15:36;68334.28;;;18.20;100.00
5988;BME280;3021;51.000;6.980;2023-06-10T04:18:02;68344.16;;;18.29;100.00
5988;BME280;3021;51.000;6.980;2023-06-10T04:20:27;68357.53;;;18.41;100.00
5988;BME280;3021;51.000;6.980;2023-06-10T04:22:52;68361.72;;;18.47;100.00
5988;BME280;3021;51.000;6.980;2023-06-10T04:25:18;68384.28;;;18.64;100.00
5988;BME280;3021;51.000;6.980;2023-06-10T04:27:43;68392.41;;;18.72;100.00
5988;BME280;3021;51.000;6.980;2023-06-10T04:30:09;68401.72;;;18.80;100.00
5988;BME280;3021;51.000;6.980;2023-06-10T04:32:35;68415.13;;;18.92;100.00
5988;BME280;3021;51.000;6.980;2023-06-10T04:35:00;68420.38;;;18.96;100.00
5988;BME280;3021;51.000;6.980;2023-06-10T04:37:25;68432.16;;;19.09;100.00
5988;BME280;3021;51.000;6.980;2023-06-10T04:39:51;68453.41;;;19.23;100.00
5988;BME280;3021;51.000;6.980;2023-06-10T04:42:16;68473.91;;;19.44;100.00
5988;BME280;3021;51.000;6.980;2023-06-10T04:44:41;68493.13;;;19.61;100.00
5988;BME280;3021;51.000;6.980;2023-06-10T04:47:08;68506.50;;;19.73;100.00
5988;BME280;3021;51.000;6.980;2023-06-10T04:49:34;68515.84;;;19.81;100.00
5988;BME280;3021;51.000;6.980;2023-06-10T04:52:00;68532.59;;;19.93;100.00
5988;BME280;3021;51.000;6.980;2023-06-10T04:54:25;68532.28;;;19.98;100.00
5988;BME280;3021;51.000;6.980;2023-06-10T04:56:51;68543.66;;;20.03;100.00
5988;BME280;3021;51.000;6.980;2023-06-10T04:59:16;68556.59;;;20.17;100.00
5988;BME280;3021;51.000;6.980;2023-06-10T05:01:42;68576.97;;;20.35;100.00
5988;BME280;3021;51.000;6.980;2023-06-10T05:04:07;68627.66;;;20.80;100.00
5988;BME280;3021;51.000;6.980;2023-06-10T05:06:32;68729.09;;;21.69;100.00
5988;BME280;3021;51.000;6.980;2023-06-10T05:08:57;68979.00;;;23.92;100.00
5988;BME280;3021;51.000;6.980;2023-06-10T05:11:23;69234.53;;;26.20;100.00
5988;BME280;3021;51.000;6.980;2023-06-10T05:13:48;69419.47;;;27.83;100.00
5988;BME280;3021;51.000;6.980;2023-06-10T05:16:14;69531.38;;;28.81;100.00
5988;BME280;3021;51.000;6.980;2023-06-10T05:18:40;69502.53;;;28.53;100.00
5988;BME280;3021;51.000;6.980;2023-06-10T05:21:05;69545.31;;;28.91;100.00
5988;BME280;3021;51.000;6.980;2023-06-10T05:23:31;69733.66;;;30.59;100.00
5988;BME280;3021;51.000;6.980;2023-06-10T05:25:56;69889.38;;;32.00;100.00
5988;BME280;3021;51.000;6.980;2023-06-10T05:28:22;69965.53;;;32.62;100.00
5988;BME280;3021;51.000;6.980;2023-06-10T05:30:47;70020.09;;;33.07;100.00
5988;BME280;3021;51.000;6.980;2023-06-10T05:33:12;69936.78;;;32.37;100.00
5988;BME280;3021;51.000;6.980;2023-06-10T05:35:38;69815.13;;;31.28;100.00
5988;BME280;3021;51.000;6.980;2023-06-10T05:38:03;69687.09;;;30.13;100.00
5988;BME280;3021;51.000;6.980;2023-06-10T05:40:28;69557.03;;;29.01;100.00
5988;BME280;3021;51.000;6.980;2023-06-10T05:42:54;69452.16;;;28.09;100.00
5988;BME280;3021;51.000;6.980;2023-06-10T05:45:19;69383.06;;;27.48;100.00
5988;BME280;3021;51.000;6.980;2023-06-10T05:47:44;69351.31;;;27.18;100.00
5988;BME280;3021;51.000;6.980;2023-06-10T05:50:10;69302.28;;;26.77;100.00
5988;BME280;3021;51.000;6.980;2023-06-10T05:52:36;69320.41;;;26.93;100.00
5988;BME280;3021;51.000;6.980;2023-06-10T05:55:04;69321.47;;;26.92;100.00
5988;BME280;3021;51.000;6.980;2023-06-10T05:57:30;69359.50;;;27.25;100.00
5988;BME280;3021;51.000;6.980;2023-06-10T05:59:55;69365.47;;;27.33;100.00
5988;BME280;3021;51.000;6.980;2023-06-10T06:02:21;69370.75;;;27.37;100.00
5988;BME280;3021;51.000;6.980;2023-06-10T06:04:46;69447.47;;;28.05;100.00
5988;BME280;3021;51.000;6.980;2023-06-10T06:07:11;69544.72;;;28.90;100.00
5988;BME280;3021;51.000;6.980;2023-06-10T06:09:37;69667.97;;;30.01;100.00
5988;BME280;3021;51.000;6.980;2023-06-10T06:12:02;69735.31;;;30.58;100.00
5988;BME280;3021;51.000;6.980;2023-06-10T06:14:31;69838.69;;;31.51;100.00
5988;BME280;3021;51.000;6.980;2023-06-10T06:16:56;70003.06;;;32.93;100.00
5988;BME280;3021;51.000;6.980;2023-06-10T06:19:21;70114.75;;;33.90;100.00
5988;BME280;3021;51.000;6.980;2023-06-10T06:21:47;70238.84;;;34.99;100.00
5988;BME280;3021;51.000;6.980;2023-06-10T06:24:14;70453.72;;;36.87;100.00
5988;BME280;3021;51.000;6.980;2023-06-10T06:26:39;70675.38;;;38.83;95.16
5988;BME280;3021;51.000;6.980;2023-06-10T06:29:04;70776.25;;;39.71;89.43
5988;BME280;3021;51.000;6.980;2023-06-10T06:31:30;70995.88;;;41.66;86.72
5988;BME280;3021;51.000;6.980;2023-06-10T06:33:55;71065.50;;;42.24;79.60
5988;BME280;3021;51.000;6.980;2023-06-10T06:36:21;71254.03;;;43.88;75.56
5988;BME280;3021;51.000;6.980;2023-06-10T06:38:46;71428.56;;;45.43;74.24
5988;BME280;3021;51.000;6.980;2023-06-10T06:41:12;71542.19;;;46.42;67.75
5988;BME280;3021;51.000;6.980;2023-06-10T06:43:37;71652.78;;;47.33;66.08
5988;BME280;3021;51.000;6.980;2023-06-10T06:46:02;71484.75;;;45.89;63.95
5988;BME280;3021;51.000;6.980;2023-06-10T06:48:28;71051.38;;;42.14;69.16
5988;BME280;3021;51.000;6.980;2023-06-10T06:50:53;70796.22;;;39.86;70.96
5988;BME280;3021;51.000;6.980;2023-06-10T06:53:18;70596.28;;;38.12;76.56
5988;BME280;3021;51.000;6.980;2023-06-10T06:55:44;70504.38;;;37.31;78.09
5988;BME280;3021;51.000;6.980;2023-06-10T06:58:09;70345.88;;;35.90;80.03
5988;BME280;3021;51.000;6.980;2023-06-10T07:00:34;70248.84;;;35.08;85.59
5988;BME280;3021;51.000;6.980;2023-06-10T07:03:00;70078.28;;;33.58;87.09
5988;BME280;3021;51.000;6.980;2023-06-10T07:05:25;69954.78;;;32.48;95.69
5988;BME280;3021;51.000;6.980;2023-06-10T07:07:54;69938.34;;;32.33;95.29
5988;BME280;3021;51.000;6.980;2023-06-10T07:10:26;69927.78;;;32.24;93.89
5988;BME280;3021;51.000;6.980;2023-06-10T07:12:52;69926.09;;;32.25;99.19
5988;BME280;3021;51.000;6.980;2023-06-10T07:15:18;69877.84;;;31.80;99.67
5988;BME280;3021;51.000;6.980;2023-06-10T07:17:43;69873.81;;;31.79;98.48
5988;BME280;3021;51.000;6.980;2023-06-10T07:20:09;69870.91;;;31.77;100.00
5988;BME280;3021;51.000;6.980;2023-06-10T07:22:35;69854.44;;;31.62;96.82
5988;BME280;3021;51.000;6.980;2023-06-10T07:25:00;69836.84;;;31.47;100.00
5988;BME280;3021;51.000;6.980;2023-06-10T07:27:26;69813.97;;;31.27;100.00
5988;BME280;3021;51.000;6.980;2023-06-10T07:29:51;69712.91;;;30.36;99.86
5988;BME280;3021;51.000;6.980;2023-06-10T07:32:17;69703.03;;;30.29;100.00
5988;BME280;3021;51.000;6.980;2023-06-10T07:34:42;69698.34;;;30.25;100.00
5988;BME280;3021;51.000;6.980;2023-06-10T07:37:07;69674.88;;;30.05;100.00
5988;BME280;3021;51.000;6.980;2023-06-10T07:39:33;69596.09;;;29.30;100.00
5988;BME280;3021;51.000;6.980;2023-06-10T07:41:59;69655.31;;;29.82;100.00
5988;BME280;3021;51.000;6.980;2023-06-10T07:44:24;69660.13;;;29.89;100.00
5988;BME280;3021;51.000;6.980;2023-06-10T07:46:49;69700.13;;;30.27;100.00
5988;BME280;3021;51.000;6.980;2023-06-10T07:49:15;69793.91;;;31.07;100.00
5988;BME280;3021;51.000;6.980;2023-06-10T07:51:40;69862.09;;;31.69;100.00
5988;BME280;3021;51.000;6.980;2023-06-10T07:54:06;69959.00;;;32.54;100.00
5988;BME280;3021;51.000;6.980;2023-06-10T07:56:31;70036.56;;;33.22;100.00
5988;BME280;3021;51.000;6.980;2023-06-10T07:58:57;70008.34;;;32.97;97.92
5988;BME280;3021;51.000;6.980;2023-06-10T08:01:22;69990.13;;;32.81;97.61
5988;BME280;3021;51.000;6.980;2023-06-10T08:03:48;69953.63;;;32.47;100.00
5988;BME280;3021;51.000;6.980;2023-06-10T08:06:14;69961.34;;;32.56;100.00
5988;BME280;3021;51.000;6.980;2023-06-10T08:08:39;69890.25;;;31.94;99.98
5988;BME280;3021;51.000;6.980;2023-06-10T08:11:10;69905.53;;;32.07;99.84
5988;BME280;3021;51.000;6.980;2023-06-10T08:13:36;69953.69;;;32.49;100.00
5988;BME280;3021;51.000;6.980;2023-06-10T08:16:01;69980.16;;;32.72;98.20
5988;BME280;3021;51.000;6.980;2023-06-10T08:18:26;69963.09;;;32.58;96.97
5988;BME280;3021;51.000;6.980;2023-06-10T08:20:51;70025.38;;;33.12;97.76
5988;BME280;3021;51.000;6.980;2023-06-10T08:23:17;70118.25;;;33.93;95.00
5988;BME280;3021;51.000;6.980;2023-06-10T08:25:42;70144.72;;;34.17;94.96
5988;BME280;3021;51.000;6.980;2023-06-10T08:28:07;70275.41;;;35.34;93.26
5988;BME280;3021;51.000;6.980;2023-06-10T08:30:33;70431.41;;;36.70;87.26
5988;BME280;3021;51.000;6.980;2023-06-10T08:32:59;70468.50;;;37.03;86.58
5988;BME280;3021;51.000;6.980;2023-06-10T08:35:24;70810.44;;;40.01;84.15
5988;BME280;3021;51.000;6.980;2023-06-10T08:37:50;71335.63;;;44.59;75.57
5988;BME280;3021;51.000;6.980;2023-06-10T08:40:15;71590.09;;;46.81;66.24
5988;BME280;3021;51.000;6.980;2023-06-10T08:43:00;71728.66;;;48.01;61.59
5988;BME280;3021;51.000;6.980;2023-06-10T08:45:30;71716.84;;;47.91;60.52
5988;BME280;3021;51.000;6.980;2023-06-10T08:47:57;71634.56;;;47.22;59.02
5988;BME280;3021;51.000;6.980;2023-06-10T08:50:22;71706.72;;;47.80;59.70
5988;BME280;3021;51.000;6.980;2023-06-10T08:52:50;71864.91;;;49.17;58.96
5988;BME280;3021;51.000;6.980;2023-06-10T08:55:23;71854.94;;;49.13;56.97
5988;BME280;3021;51.000;6.980;2023-06-10T08:57:51;71887.50;;;49.39;56.91
5988;BME280;3021;51.000;6.980;2023-06-10T09:00:18;71909.44;;;49.58;54.08
5988;BME280;3021;51.000;6.980;2023-06-10T09:02:44;71769.56;;;48.37;54.49
5988;BME280;3021;51.000;6.980;2023-06-10T09:05:10;71620.88;;;47.07;55.99
5988;BME280;3021;51.000;6.980;2023-06-10T09:07:36;71534.44;;;46.32;57.75
5988;BME280;3021;51.000;6.980;2023-06-10T09:10:03;71337.41;;;44.61;58.66
5988;BME280;3021;51.000;6.980;2023-06-10T09:12:30;71322.00;;;44.47;60.45
5988;BME280;3021;51.000;6.980;2023-06-10T09:14:55;71300.75;;;44.29;59.56
5988;BME280;3021;51.000;6.980;2023-06-10T09:17:21;71390.66;;;45.07;61.24
5988;BME280;3021;51.000;6.980;2023-06-10T09:19:46;71499.53;;;46.02;60.39
5988;BME280;3021;51.000;6.980;2023-06-10T09:22:12;71622.06;;;47.08;57.25
5988;BME280;3021;51.000;6.980;2023-06-10T09:24:38;71520.16;;;46.17;57.30
5988;BME280;3021;51.000;6.980;2023-06-10T09:27:05;71477.53;;;45.80;58.75
5988;BME280;3021;51.000;6.980;2023-06-10T09:30:04;71552.22;;;46.48;56.50
5988;BME280;3021;51.000;6.980;2023-06-10T09:32:24;71384.13;;;45.01;56.82
5988;BME280;3021;51.000;6.980;2023-06-10T09:34:50;71403.00;;;45.15;58.14
5988;BME280;3021;51.000;6.980;2023-06-10T09:37:25;71613.78;;;47.01;57.09
5988;BME280;3021;51.000;6.980;2023-06-10T09:40:06;71821.09;;;48.82;53.32
5988;BME280;3021;51.000;6.980;2023-06-10T09:42:39;71758.84;;;48.25;53.34
5988;BME280;3021;51.000;6.980;2023-06-10T09:45:05;71714.41;;;47.86;53.51
5988;BME280;3021;51.000;6.980;2023-06-10T09:47:31;71699.00;;;47.73;52.49
5988;BME280;3021;51.000;6.980;2023-06-10T09:49:56;71606.06;;;46.95;55.06
5988;BME280;3021;51.000;6.980;2023-06-10T09:52:23;71572.88;;;46.63;55.35
5988;BME280;3021;51.000;6.980;2023-06-10T09:54:50;71623.78;;;47.07;55.46
5988;BME280;3021;51.000;6.980;2023-06-10T09:57:17;71598.31;;;46.85;54.07
5988;BME280;3021;51.000;6.980;2023-06-10T09:59:43;71560.44;;;46.52;55.21
5988;BME280;3021;51.000;6.980;2023-06-10T10:02:17;71507.16;;;46.06;53.77
5988;BME280;3021;51.000;6.980;2023-06-10T10:04:45;71383.53;;;45.01;54.71
5988;BME280;3021;51.000;6.980;2023-06-10T10:07:11;71433.16;;;45.42;53.77
5988;BME280;3021;51.000;6.980;2023-06-10T10:09:37;71478.22;;;45.83;54.74
5988;BME280;3021;51.000;6.980;2023-06-10T10:12:12;71606.13;;;46.97;53.59
5988;BME280;3021;51.000;6.980;2023-06-10T10:14:39;71519.63;;;46.19;55.15
5988;BME280;3021;51.000;6.980;2023-06-10T10:17:09;71623.25;;;47.10;54.62
5988;BME280;3021;51.000;6.980;2023-06-10T10:19:40;71595.41;;;46.85;55.72
5988;BME280;3021;51.000;6.980;2023-06-10T10:22:11;71677.78;;;47.59;54.41
5988;BME280;3021;51.000;6.980;2023-06-10T10:24:47;71725.13;;;47.98;53.06
5988;BME280;3021;51.000;6.980;2023-06-10T10:27:18;71458.69;;;45.66;53.43
5988;BME280;3021;51.000;6.980;2023-06-10T10:29:47;71066.63;;;42.22;55.02
5988;BME280;3021;51.000;6.980;2023-06-10T10:32:14;70726.09;;;39.28;59.33
5988;BME280;3021;51.000;6.980;2023-06-10T10:35:00;70504.97;;;37.32;61.68
5988;BME280;3021;51.000;6.980;2023-06-10T10:37:30;70433.09;;;36.69;64.85
5988;BME280;3021;51.000;6.980;2023-06-10T10:39:56;70545.00;;;37.67;65.24
5988;BME280;3021;51.000;6.980;2023-06-10T10:42:23;70764.97;;;39.59;64.83
5988;BME280;3021;51.000;6.980;2023-06-10T10:44:49;71018.84;;;41.83;60.04
5988;BME280;3021;51.000;6.980;2023-06-10T10:47:21;71214.94;;;43.52;58.41
5988;BME280;3021;51.000;6.980;2023-06-10T10:49:50;71356.28;;;44.75;58.51
5988;BME280;3021;51.000;6.980;2023-06-10T10:52:16;71499.53;;;46.02;58.30
5988;BME280;3021;51.000;6.980;2023-06-10T10:54:46;71408.38;;;45.23;54.03
5988;BME280;3021;51.000;6.980;2023-06-10T10:57:22;70818.66;;;40.06;57.86
5988;BME280;3021;51.000;6.980;2023-06-10T11:05:01;70533.84;;;37.57;63.70
5988;BME280;3021;51.000;6.980;2023-06-10T11:07:29;70600.41;;;38.15;64.03
5988;BME280;3021;51.000;6.980;2023-06-10T11:10:12;70515.56;;;37.41;62.97
5988;BME280;3021;51.000;6.980;2023-06-10T11:12:53;70418.94;;;36.57;62.91
5988;BME280;3021;51.000;6.980;2023-06-10T11:15:27;70284.63;;;35.37;63.58
5988;BME280;3021;51.000;6.980;2023-06-10T11:18:11;70161.56;;;34.26;65.64
5988;BME280;3021;51.000;6.980;2023-06-10T11:31:26;69874.91;;;31.78;70.95
5988;BME280;3021;51.000;6.980;2023-06-10T11:34:00;69830.88;;;31.39;71.85
5988;BME280;3021;51.000;6.980;2023-06-10T11:36:27;69808.66;;;31.22;72.95
5988;BME280;3021;51.000;6.980;2023-06-10T11:38:56;69781.56;;;30.96;74.84
5988;BME280;3021;51.000;6.980;2023-06-10T11:41:23;69768.66;;;30.84;76.64
5988;BME280;3021;51.000;6.980;2023-06-10T11:43:48;69769.16;;;30.82;77.29
5988;BME280;3021;51.000;6.980;2023-06-10T11:46:14;69776.28;;;30.91;77.97
5988;BME280;3021;51.000;6.980;2023-06-10T11:48:48;69761.63;;;30.78;77.83
5988;BME280;3021;51.000;6.980;2023-06-10T11:51:14;69751.72;;;30.72;78.98
5988;BME280;3021;51.000;6.980;2023-06-10T11:53:39;69741.56;;;30.58;80.02
5988;BME280;3021;51.000;6.980;2023-06-10T11:56:05;69736.38;;;30.56;81.03
5988;BME280;3021;51.000;6.980;2023-06-10T11:58:30;69748.31;;;30.72;80.45
5988;BME280;3021;51.000;6.980;2023-06-10T12:00:55;69757.59;;;30.77;78.97
5988;BME280;3021;51.000;6.980;2023-06-10T12:03:24;69770.97;;;30.87;80.40
5988;BME280;3021;51.000;6.980;2023-06-10T12:06:02;69781.44;;;30.93;79.58
5988;BME280;3021;51.000;6.980;2023-06-10T12:08:29;69780.38;;;30.95;79.11
5988;BME280;3021;51.000;6.980;2023-06-10T12:10:55;69776.84;;;30.92;78.90
5988;BME280;3021;51.000;6.980;2023-06-10T12:13:21;69778.50;;;30.91;80.83
5988;BME280;3021;51.000;6.980;2023-06-10T12:15:48;69766.78;;;30.80;80.93
5988;BME280;3021;51.000;6.980;2023-06-10T12:18:20;69776.84;;;30.92;83.68
5988;BME280;3021;51.000;6.980;2023-06-10T12:20:46;69799.75;;;31.12;78.87
5988;BME280;3021;51.000;6.980;2023-06-10T12:23:12;69817.94;;;31.28;80.30
5988;BME280;3021;51.000;6.980;2023-06-10T12:25:38;69840.84;;;31.48;77.32
5988;BME280;3021;51.000;6.980;2023-06-10T12:28:05;69866.09;;;31.70;76.53
5988;BME280;3021;51.000;6.980;2023-06-10T12:30:31;69877.25;;;31.80;76.81
5988;BME280;3021;51.000;6.980;2023-06-10T12:32:57;69900.72;;;32.00;76.04
5988;BME280;3021;51.000;6.980;2023-06-10T12:35:27;69906.63;;;32.05;73.06
5988;BME280;3021;51.000;6.980;2023-06-10T12:38:00;69894.38;;;31.97;72.85
5988;BME280;3021;51.000;6.980;2023-06-10T12:40:34;69949.59;;;32.46;73.92
5988;BME280;3021;51.000;6.980;2023-06-10T12:43:01;70039.41;;;33.22;71.81
5988;BME280;3021;51.000;6.980;2023-06-10T12:45:45;70084.16;;;33.64;70.08
5988;BME280;3021;51.000;6.980;2023-06-10T12:48:16;70102.31;;;33.77;71.91
5988;BME280;3021;51.000;6.980;2023-06-10T12:50:42;70117.06;;;33.92;70.83
5988;BME280;3021;51.000;6.980;2023-06-10T12:53:09;70062.41;;;33.45;72.17
5988;BME280;3021;51.000;6.980;2023-06-10T12:55:34;69960.75;;;32.55;71.62
5988;BME280;3021;51.000;6.980;2023-06-10T12:58:00;69964.19;;;32.56;71.94
5988;BME280;3021;51.000;6.980;2023-06-10T13:00:27;70011.28;;;33.00;73.08
5988;BME280;3021;51.000;6.980;2023-06-10T13:02:56;70047.16;;;33.31;70.59
5988;BME280;3021;51.000;6.980;2023-06-10T13:05:21;70071.22;;;33.52;68.21
5988;BME280;3021;51.000;6.980;2023-06-10T13:07:47;70065.34;;;33.47;66.71
5988;BME280;3021;51.000;6.980;2023-06-10T13:10:14;70079.94;;;33.57;64.62
5988;BME280;3021;51.000;6.980;2023-06-10T13:12:39;70108.28;;;33.85;64.95
5988;BME280;3021;51.000;6.980;2023-06-10T13:15:06;70095.31;;;33.73;65.24
5988;BME280;3021;51.000;6.980;2023-06-10T13:17:31;70038.31;;;33.23;67.68
5988;BME280;3021;51.000;6.980;2023-06-10T13:19:59;70028.22;;;33.12;66.59
5988;BME280;3021;51.000;6.980;2023-06-10T13:22:25;70003.66;;;32.93;67.95
5988;BME280;3021;51.000;6.980;2023-06-10T13:24:51;69928.44;;;32.27;68.96
5988;BME280;3021;51.000;6.980;2023-06-10T13:27:17;69928.34;;;32.25;70.00
5988;BME280;3021;51.000;6.980;2023-06-10T13:29:42;69938.44;;;32.36;68.85
5988;BME280;3021;51.000;6.980;2023-06-10T13:32:08;69949.50;;;32.43;69.37